Houston, Texas
Traffic Map
Current Weather Conditions
Houston, Texas
Few Clouds
Few Clouds
24°
Feels Like: 24°
Wind Chill: 24° Ceiling: Unl
Heat Index: 24° Visibility: 10mi
Dew Point: 11° Wind: 7mph
Humidity: 43% Direction: 110° (ESE)
Pressure: 29.81in Gusts: 0mph
Raw Report DataKIAH 271753Z 11006KT 10SM FEW250 24/11 A2981 RMK AO2 SLP093 T02390106 10239 20117 58013 $
Traffic Incident Summary
Active as of:
Severity:
Category:
InformationThere was an issue retrieving the traffic information for this location. Please try a different location or try again shortly.
Advertisements
Track Severe Weather on mobile